createdAt,value
2022-11-20T00:01:14.622Z,72.53
2022-11-20T00:03:44.666Z,72.45
2022-11-20T00:06:14.549Z,79.00
2022-11-20T00:08:43.012Z,74.03
2022-11-20T00:11:15.786Z,79.53
2022-11-20T00:13:44.580Z,79.72
2022-11-20T00:16:14.122Z,83.60
2022-11-20T00:18:43.358Z,79.93
2022-11-20T00:21:14.613Z,85.40
2022-11-20T00:23:43.338Z,87.55
2022-11-20T00:26:12.703Z,83.43
2022-11-20T00:28:41.502Z,86.88
2022-11-20T00:31:11.330Z,79.60
2022-11-20T00:33:39.660Z,84.15
2022-11-20T00:36:10.246Z,80.93
2022-11-20T00:38:39.978Z,81.40
2022-11-20T00:41:09.240Z,85.65
2022-11-20T00:43:37.819Z,80.97
2022-11-20T00:46:08.473Z,78.78
2022-11-20T00:48:37.034Z,79.97
2022-11-20T00:51:05.720Z,86.78
2022-11-20T00:53:34.118Z,82.03
2022-11-20T00:56:05.436Z,91.90
2022-11-20T00:58:34.834Z,90.45
2022-11-20T01:01:03.553Z,90.43
2022-11-20T01:03:33.328Z,90.40
2022-11-20T01:06:05.799Z,94.15
2022-11-20T01:08:35.191Z,94.72
2022-11-20T01:11:06.798Z,93.28
2022-11-20T01:13:42.224Z,103.38
2022-11-20T01:16:11.821Z,104.00
2022-11-20T01:18:42.874Z,98.32
2022-11-20T01:21:13.229Z,101.40
2022-11-20T01:26:14.654Z,98.70
2022-11-20T01:28:43.606Z,99.60
2022-11-20T01:31:16.455Z,111.68
2022-11-20T01:33:45.874Z,105.78
2022-11-20T01:36:15.003Z,107.50
2022-11-20T01:38:43.512Z,113.95
2022-11-20T01:41:34.524Z,119.47
2022-11-20T01:44:03.241Z,120.70
2022-11-20T01:46:31.339Z,122.00
2022-11-20T01:49:03.298Z,129.82
2022-11-20T01:51:35.849Z,135.32
2022-11-20T01:54:07.603Z,137.57
2022-11-20T01:56:39.356Z,141.10
2022-11-20T01:59:09.692Z,144.10
2022-11-20T02:01:38.003Z,150.50
2022-11-20T02:04:06.544Z,138.90
2022-11-20T02:06:38.209Z,134.23
2022-11-20T02:09:06.532Z,131.68
2022-11-20T02:11:34.599Z,141.77
2022-11-20T02:14:03.367Z,144.40
2022-11-20T02:16:34.670Z,145.43
2022-11-20T02:19:04.926Z,157.93
2022-11-20T02:21:37.478Z,155.27
2022-11-20T02:24:10.297Z,152.02
2022-11-20T02:26:44.379Z,145.00
2022-11-20T02:29:12.954Z,150.88
2022-11-20T02:31:43.679Z,157.50
2022-11-20T02:34:11.972Z,155.07
2022-11-20T02:36:41.775Z,160.00
2022-11-20T02:39:12.152Z,160.95
2022-11-20T02:41:40.535Z,163.60
2022-11-20T02:44:08.985Z,153.10
2022-11-20T02:46:37.304Z,154.93
2022-11-20T02:49:06.861Z,145.20
2022-11-20T02:51:35.039Z,147.55
2022-11-20T02:54:03.562Z,138.65
2022-11-20T02:56:33.346Z,128.07
2022-11-20T02:59:01.780Z,134.05
2022-11-20T03:01:29.961Z,127.80
2022-11-20T03:03:58.496Z,128.00
2022-11-20T03:06:26.676Z,128.25
2022-11-20T03:08:55.140Z,121.82
2022-11-20T03:11:23.469Z,117.75
2022-11-20T07:34:04.709Z,67.60
2022-11-20T07:36:32.780Z,65.47
2022-11-20T07:39:01.121Z,64.63
2022-11-20T07:41:30.167Z,73.75
2022-11-20T07:43:58.539Z,65.18
2022-11-20T07:46:26.816Z,69.80
2022-11-20T07:48:55.688Z,67.30
2022-11-20T07:51:25.011Z,68.43
2022-11-20T07:53:53.863Z,63.75
2022-11-20T07:56:21.871Z,68.20
2022-11-20T07:58:50.381Z,68.88
2022-11-20T08:01:18.488Z,67.20
2022-11-20T08:03:46.993Z,62.95
2022-11-20T08:06:15.815Z,63.45
2022-11-20T08:08:45.692Z,66.22
2022-11-20T08:11:31.128Z,69.70
2022-11-20T08:14:14.603Z,72.38
2022-11-20T08:16:43.141Z,75.60
2022-11-20T08:19:11.790Z,73.00
2022-11-20T08:21:40.057Z,74.78
2022-11-20T08:24:10.643Z,73.53
2022-11-20T08:26:40.008Z,92.88
2022-11-20T08:29:08.769Z,78.13
2022-11-20T08:31:37.204Z,78.38
2022-11-20T08:34:25.575Z,85.72
2022-11-20T08:36:53.684Z,77.65
2022-11-20T08:39:23.666Z,79.75
2022-11-20T08:41:51.986Z,80.13
2022-11-20T08:44:20.309Z,71.80
2022-11-20T08:46:48.307Z,76.00
2022-11-20T08:49:17.165Z,86.97
2022-11-20T08:51:46.090Z,103.20
2022-11-20T08:54:14.604Z,80.70
2022-11-20T08:56:44.002Z,84.22
2022-11-20T08:59:50.682Z,72.22
2022-11-20T09:02:00.540Z,86.57
2022-11-20T09:04:28.861Z,69.20
2022-11-20T09:06:56.938Z,64.93
2022-11-20T09:09:25.807Z,73.50
2022-11-20T09:11:55.553Z,65.70
2022-11-20T09:14:25.879Z,90.72
2022-11-20T09:16:53.970Z,83.45
2022-11-20T09:19:36.557Z,83.15
2022-11-20T09:22:04.769Z,67.40
2022-11-20T09:24:33.064Z,59.85
2022-11-20T09:27:05.771Z,57.28
2022-11-20T09:29:34.246Z,55.83
2022-11-20T09:32:02.311Z,51.08
2022-11-20T09:34:30.703Z,56.30
2022-11-20T09:37:01.578Z,52.75
2022-11-20T09:39:32.911Z,57.90
2022-11-20T09:42:13.841Z,114.85
2022-11-20T09:44:54.464Z,78.30
2022-11-20T09:47:30.735Z,67.00
2022-11-20T09:50:12.891Z,63.35
2022-11-20T09:52:48.466Z,63.83
2022-11-20T09:55:17.254Z,47.95
2022-11-20T09:57:48.575Z,52.20
2022-11-20T10:00:17.805Z,49.65
2022-11-20T10:02:50.291Z,47.72
2022-11-20T10:05:21.239Z,54.72
2022-11-20T10:07:56.464Z,75.50
2022-11-20T10:10:32.775Z,102.25
2022-11-20T10:13:13.039Z,55.95
2022-11-20T10:15:49.892Z,85.83
2022-11-20T10:18:27.540Z,52.28
2022-11-20T10:21:00.471Z,45.95
2022-11-20T10:23:48.615Z,52.97
2022-11-20T10:26:21.213Z,63.17
2022-11-20T10:29:21.007Z,51.97
2022-11-20T10:31:55.885Z,46.88
2022-11-20T10:34:28.111Z,46.00
2022-11-20T10:36:58.211Z,91.13
2022-11-20T10:39:33.547Z,47.08
2022-11-20T10:42:01.944Z,58.50
2022-11-20T10:44:52.503Z,44.92
2022-11-20T10:47:24.961Z,55.55
2022-11-20T10:49:55.399Z,52.75
2022-11-20T10:52:29.388Z,45.97
2022-11-20T10:55:02.221Z,84.32
2022-11-20T10:57:44.257Z,46.88
2022-11-20T11:00:15.335Z,35.58
2022-11-20T11:02:45.724Z,44.83
2022-11-20T11:05:33.534Z,39.10
2022-11-20T11:08:01.878Z,50.00
2022-11-20T11:10:35.346Z,39.75
2022-11-20T11:13:03.717Z,112.70
2022-11-20T11:15:40.288Z,53.55
2022-11-20T11:18:11.175Z,59.72
2022-11-20T11:20:39.966Z,71.40
2022-11-20T11:23:29.113Z,56.20
2022-11-20T11:26:00.708Z,58.03
2022-11-20T11:28:29.552Z,42.22
2022-11-20T11:30:59.091Z,50.03
2022-11-20T11:33:28.786Z,48.75
2022-11-20T11:35:59.297Z,44.50
2022-11-20T11:38:31.969Z,45.83
2022-11-20T11:41:00.181Z,42.47
2022-11-20T11:43:49.599Z,43.45
2022-11-20T11:46:28.733Z,68.03
2022-11-20T11:49:00.722Z,43.95
2022-11-20T11:51:32.703Z,41.22
2022-11-20T11:54:01.616Z,41.95
2022-11-20T11:56:30.583Z,73.57
2022-11-20T11:59:01.675Z,50.78
2022-11-20T12:01:35.305Z,43.97
2022-11-20T12:04:07.405Z,52.00
2022-11-20T12:06:38.143Z,49.67
2022-11-20T12:09:07.862Z,54.88
2022-11-20T12:11:41.235Z,50.40
2022-11-20T12:14:15.840Z,51.97
2022-11-20T12:16:45.428Z,53.13
2022-11-20T12:19:15.735Z,46.50
2022-11-20T12:21:58.476Z,46.40
2022-11-20T12:24:49.298Z,56.33
2022-11-20T12:27:40.508Z,51.83
2022-11-20T12:30:11.421Z,65.65
2022-11-20T12:32:56.414Z,57.60
2022-11-20T12:35:44.920Z,59.95
2022-11-20T12:38:48.644Z,51.42
2022-11-20T12:41:37.579Z,49.95
2022-11-20T12:44:30.729Z,60.58
2022-11-20T12:47:10.999Z,53.70
2022-11-20T12:49:44.520Z,72.13
2022-11-20T12:52:23.269Z,54.78
2022-11-20T12:55:10.421Z,60.95
2022-11-20T12:57:46.016Z,68.60
2022-11-20T13:00:17.414Z,58.67
2022-11-20T13:03:15.976Z,81.63
2022-11-20T13:05:53.693Z,63.28
2022-11-20T13:08:24.877Z,91.95
2022-11-20T13:10:59.678Z,65.47
2022-11-20T13:13:33.548Z,63.90
2022-11-20T13:16:06.481Z,71.88
2022-11-20T13:18:48.629Z,66.93
2022-11-20T13:21:37.131Z,62.10
2022-11-20T13:24:09.095Z,63.88
2022-11-20T13:26:37.206Z,89.50
2022-11-20T13:29:11.900Z,90.22
2022-11-20T13:31:43.844Z,76.20
2022-11-20T13:34:15.126Z,65.60
2022-11-20T13:36:53.601Z,67.22
2022-11-20T13:39:28.457Z,63.38
2022-11-20T13:41:57.948Z,66.75
2022-11-20T13:44:29.000Z,65.00
2022-11-20T13:46:57.133Z,70.25
2022-11-20T13:49:28.523Z,71.72
2022-11-20T13:52:08.446Z,73.60
2022-11-20T13:54:55.193Z,76.28
2022-11-20T13:57:37.959Z,78.95
2022-11-20T14:00:21.204Z,79.63
2022-11-20T14:03:01.919Z,78.95
2022-11-20T14:05:31.098Z,89.47
2022-11-20T14:08:00.950Z,82.70
2022-11-20T14:10:32.312Z,72.95
2022-11-20T14:13:00.882Z,82.55
2022-11-20T14:15:32.128Z,89.90
2022-11-20T14:18:01.050Z,78.03
2022-11-20T14:20:32.409Z,88.28
2022-11-20T14:23:01.902Z,78.75
2022-11-20T14:25:32.088Z,75.35
2022-11-20T14:28:02.214Z,89.97
2022-11-20T14:30:38.103Z,88.30
2022-11-20T14:33:06.348Z,91.22
2022-11-20T14:35:46.409Z,85.32
2022-11-20T14:38:17.724Z,88.47
2022-11-20T14:40:46.399Z,89.03
2022-11-20T14:43:20.627Z,81.45
2022-11-20T14:45:55.249Z,84.70
2022-11-20T14:48:26.508Z,86.70
2022-11-20T14:50:54.812Z,86.45
2022-11-20T14:53:26.666Z,88.30
2022-11-20T14:56:00.261Z,85.30
2022-11-20T14:58:29.762Z,99.20
2022-11-20T15:00:59.112Z,89.50
2022-11-20T15:03:34.068Z,92.55
2022-11-20T15:06:02.854Z,87.28
2022-11-20T15:08:32.516Z,79.93
2022-11-20T15:11:01.050Z,81.50
2022-11-20T15:13:32.323Z,78.07
2022-11-20T15:16:01.576Z,87.18
2022-11-20T15:18:32.132Z,80.50
2022-11-20T15:21:03.867Z,90.60
2022-11-20T15:23:33.285Z,83.05
2022-11-20T15:26:01.687Z,81.43
2022-11-20T15:28:32.638Z,82.90
2022-11-20T15:33:29.883Z,74.95
2022-11-20T15:35:58.688Z,93.93
2022-11-20T15:38:26.880Z,82.68
2022-11-20T15:40:56.646Z,80.70
2022-11-20T15:43:24.707Z,81.38
2022-11-20T15:45:55.597Z,82.05
2022-11-20T15:48:25.544Z,77.65
2022-11-20T15:50:56.908Z,83.65
2022-11-20T15:53:25.115Z,93.78
2022-11-20T15:55:53.564Z,84.15
2022-11-20T15:58:24.029Z,90.18
2022-11-20T16:00:52.766Z,86.22
2022-11-20T16:03:21.106Z,90.57
2022-11-20T16:05:49.522Z,88.82
2022-11-20T16:08:17.618Z,95.97
2022-11-20T16:10:46.021Z,93.90
2022-11-20T16:13:33.266Z,84.50
2022-11-20T16:16:06.534Z,96.13
2022-11-20T16:18:35.326Z,88.15
2022-11-20T16:21:04.193Z,93.95
2022-11-20T16:23:32.311Z,90.75
2022-11-20T16:26:00.720Z,90.20
2022-11-20T16:28:28.967Z,93.85
2022-11-20T16:30:57.457Z,95.53
2022-11-20T16:33:27.008Z,96.30
2022-11-20T16:35:55.416Z,95.43
2022-11-20T16:38:23.625Z,88.45
2022-11-20T16:40:52.005Z,98.70
2022-11-20T16:43:20.377Z,106.25
2022-11-20T16:45:48.841Z,94.95
2022-11-20T16:48:17.931Z,91.53
2022-11-20T16:50:52.524Z,92.30
2022-11-20T16:53:22.141Z,92.85
2022-11-20T16:55:50.819Z,85.15
2022-11-20T16:58:19.020Z,80.72
2022-11-20T17:00:51.595Z,86.88
2022-11-20T17:03:21.130Z,84.82
2022-11-20T17:05:51.017Z,77.85
2022-11-20T17:08:19.275Z,80.05
2022-11-20T17:10:47.834Z,93.63
2022-11-20T17:13:17.154Z,89.82
2022-11-20T17:15:45.479Z,91.05
2022-11-20T17:18:13.572Z,82.88
2022-11-20T17:20:41.948Z,82.95
2022-11-20T17:23:11.504Z,91.57
2022-11-20T17:25:39.982Z,99.82
2022-11-20T17:28:08.154Z,119.43
2022-11-20T17:30:36.526Z,100.03
2022-11-20T17:33:04.735Z,101.18
2022-11-20T17:35:33.081Z,85.47
2022-11-20T17:38:01.175Z,80.38
2022-11-20T17:40:32.111Z,77.28
2022-11-20T17:43:00.210Z,77.10
2022-11-20T17:45:28.649Z,84.45
2022-11-20T17:47:57.849Z,77.75
2022-11-20T17:50:26.651Z,74.90
2022-11-20T17:52:55.455Z,69.88
2022-11-20T17:55:24.076Z,73.38
2022-11-20T17:57:52.675Z,69.00
2022-11-20T18:00:21.264Z,75.30
2022-11-20T18:02:49.485Z,65.80
2022-11-20T18:05:18.135Z,62.80
2022-11-20T18:07:46.459Z,65.20
2022-11-20T18:10:15.056Z,61.08
2022-11-20T18:12:44.043Z,73.97
2022-11-20T18:15:13.982Z,67.43
2022-11-20T18:17:42.102Z,65.25
2022-11-20T18:20:28.753Z,68.20
2022-11-20T18:22:57.829Z,68.57
2022-11-20T18:25:26.341Z,66.75
2022-11-20T18:27:54.954Z,76.05
2022-11-20T18:30:25.126Z,75.05
2022-11-20T18:32:53.638Z,77.93
2022-11-20T18:35:22.417Z,78.78
2022-11-20T18:37:50.517Z,75.22
2022-11-20T18:40:19.021Z,83.47
2022-11-20T18:43:04.708Z,82.85
2022-11-20T18:45:34.688Z,87.55
2022-11-20T18:48:02.933Z,85.72
2022-11-20T18:50:31.437Z,85.82
2022-11-20T18:52:59.532Z,85.05
2022-11-20T18:55:27.980Z,74.22
2022-11-20T18:57:56.209Z,78.70
2022-11-20T19:00:24.951Z,82.30
2022-11-20T19:02:55.493Z,77.35
2022-11-20T19:05:23.984Z,68.53
2022-11-20T19:07:52.447Z,58.95
2022-11-20T19:10:21.314Z,62.67
2022-11-20T19:12:49.514Z,58.53
2022-11-20T19:15:17.926Z,55.95
2022-11-20T19:17:46.123Z,57.70
2022-11-20T19:20:15.996Z,59.63
2022-11-20T19:22:44.170Z,55.03
2022-11-20T19:25:12.661Z,54.92
2022-11-20T19:27:40.982Z,56.17
2022-11-20T19:30:10.735Z,55.13
2022-11-20T19:32:38.939Z,48.80
2022-11-20T19:35:07.915Z,50.50
2022-11-20T19:37:37.628Z,44.65
2022-11-20T19:40:07.054Z,52.55
2022-11-20T19:42:35.338Z,48.35
2022-11-20T19:45:03.715Z,50.53
2022-11-20T19:48:00.553Z,54.30
2022-11-20T19:50:20.368Z,55.00
2022-11-20T19:52:52.013Z,54.53
2022-11-20T19:55:24.112Z,66.90
2022-11-20T19:57:52.340Z,49.92
2022-11-20T20:00:28.093Z,49.08
2022-11-20T20:03:00.643Z,48.97
2022-11-20T20:05:29.025Z,48.80
2022-11-20T20:07:58.860Z,52.17
2022-11-20T20:10:27.323Z,53.00
2022-11-20T20:12:55.583Z,52.22
2022-11-20T20:15:24.100Z,51.35
2022-11-20T20:17:52.945Z,52.38
2022-11-20T20:20:22.944Z,46.42
2022-11-20T20:22:51.156Z,51.63
2022-11-20T20:25:21.040Z,52.83
2022-11-20T20:27:49.180Z,51.13
2022-11-20T20:30:17.682Z,56.25
2022-11-20T20:32:45.846Z,52.03
2022-11-20T20:35:14.257Z,52.15
2022-11-20T20:37:42.554Z,79.38
2022-11-20T20:40:15.103Z,54.40
2022-11-20T20:42:45.270Z,56.33
2022-11-20T20:45:12.695Z,61.50
2022-11-20T20:47:42.003Z,59.00
2022-11-20T20:50:11.661Z,63.05
2022-11-20T20:52:39.988Z,67.32
2022-11-20T20:55:08.914Z,60.58
2022-11-20T20:57:37.353Z,56.88
2022-11-20T21:00:09.049Z,58.63
2022-11-20T21:05:05.907Z,56.30
2022-11-20T21:07:34.062Z,54.13
2022-11-20T21:10:02.477Z,55.95
2022-11-20T21:12:30.609Z,52.85
2022-11-20T21:14:58.923Z,52.72
2022-11-20T21:17:29.231Z,56.20
2022-11-20T21:19:57.730Z,55.88
2022-11-20T21:22:24.778Z,50.75
2022-11-20T21:24:53.171Z,53.33
2022-11-20T21:27:21.316Z,53.40
2022-11-20T21:29:49.884Z,52.30
2022-11-20T21:32:18.064Z,58.85
2022-11-20T21:34:47.889Z,57.80
2022-11-20T21:37:16.025Z,59.35
2022-11-20T21:39:50.799Z,63.47
2022-11-20T21:42:19.041Z,63.35
2022-11-20T21:44:47.960Z,67.90
2022-11-20T21:47:16.110Z,85.03
2022-11-20T21:49:44.436Z,85.53
2022-11-20T21:52:13.883Z,85.90
2022-11-20T21:54:42.250Z,75.13
2022-11-20T21:57:10.321Z,64.80
2022-11-20T21:59:38.667Z,64.55
2022-11-20T22:02:08.062Z,64.57
2022-11-20T22:04:36.547Z,61.97
2022-11-20T22:07:06.323Z,66.10
2022-11-20T22:09:36.266Z,61.28
2022-11-20T22:12:04.778Z,66.47
2022-11-20T22:14:32.252Z,67.07
2022-11-20T22:17:00.306Z,59.88
2022-11-20T22:19:28.710Z,60.63
2022-11-20T22:21:56.767Z,65.82
2022-11-20T22:24:25.447Z,65.20
2022-11-20T22:26:55.242Z,60.60
2022-11-20T22:29:23.561Z,63.67
2022-11-20T22:31:53.164Z,65.65
2022-11-20T22:34:21.928Z,61.53
2022-11-20T22:36:50.126Z,69.75
2022-11-20T22:39:18.793Z,61.95
2022-11-20T22:41:46.890Z,66.25
2022-11-20T22:44:17.385Z,65.75
2022-11-20T22:46:45.500Z,67.97
2022-11-20T22:49:13.981Z,63.72
2022-11-20T22:51:43.079Z,62.33
2022-11-20T22:54:12.750Z,57.78
2022-11-20T22:56:41.310Z,60.92
2022-11-20T22:59:09.811Z,62.60
2022-11-20T23:01:39.549Z,59.83
2022-11-20T23:04:10.702Z,64.43
2022-11-20T23:06:39.131Z,63.83
2022-11-20T23:09:09.449Z,63.22
2022-11-20T23:11:37.686Z,59.45
2022-11-20T23:14:07.360Z,57.83
2022-11-20T23:16:36.179Z,56.83
2022-11-20T23:19:07.676Z,62.65
2022-11-20T23:21:36.219Z,56.78
2022-11-20T23:24:05.217Z,57.28
2022-11-20T23:26:35.508Z,57.67
2022-11-20T23:29:05.304Z,55.47
2022-11-20T23:31:34.257Z,51.33
2022-11-20T23:34:02.876Z,53.42
2022-11-20T23:36:32.381Z,53.38
2022-11-20T23:39:00.754Z,53.42
2022-11-20T23:41:28.744Z,57.95
2022-11-20T23:43:57.175Z,51.03
2022-11-20T23:46:25.268Z,55.42
2022-11-20T23:48:53.624Z,49.60
2022-11-20T23:51:21.625Z,53.42
2022-11-20T23:53:51.383Z,56.40
2022-11-20T23:56:20.863Z,51.33
2022-11-20T23:58:49.305Z,50.60
